Time;durP1;ratioP1;P1;durP2;ratioP2;P2;SDS_P1;SDS_P2;PMS_P1;PMS_P2;Temp;Humidity;BMP_temperature;BMP_pressure;BME280_temperature;BME280_humidity;BME280_pressure;Samples;Min_cycle;Max_cycle;Signal;HPM_P1;HPM_P2
2021/03/17 00:01:00;;;;;;;21.82;12.43;;;;;;;2.66;73.24;99578.84;1767949;79;21592;-72
2021/03/17 00:03:47;;;;;;;21.25;12.13;;;;;;;2.66;73.17;99570.92;1765397;80;21233;-74
2021/03/17 00:06:33;;;;;;;18.73;12.58;;;;;;;2.65;73.07;99577.23;1766971;79;21199;-73
2021/03/17 00:09:20;;;;;;;17.55;12.15;;;;;;;2.64;73.06;99576.96;1795906;77;21236;-74
2021/03/17 00:12:07;;;;;;;15.93;11.43;;;;;;;2.64;73.08;99576.96;1754629;80;21460;-74
2021/03/17 00:14:54;;;;;;;24.20;12.80;;;;;;;2.63;73.10;99567.42;1769607;79;21202;-77
2021/03/17 00:17:40;;;;;;;20.12;11.43;;;;;;;2.64;73.14;99576.96;1777842;79;21193;-74
2021/03/17 00:20:29;;;;;;;20.50;12.80;;;;;;;2.66;73.15;99574.87;1774622;79;21878;-74
2021/03/17 00:23:17;;;;;;;14.80;11.00;;;;;;;2.64;73.15;99566.42;1782842;79;21213;-75
2021/03/17 00:26:04;;;;;;;18.23;11.45;;;;;;;2.61;73.04;99576.09;1770203;79;20994;-74
2021/03/17 00:28:51;;;;;;;21.60;14.00;;;;;;;2.58;73.04;99573.39;1802303;77;21191;-75
2021/03/17 00:31:37;;;;;;;21.68;11.88;;;;;;;2.55;73.10;99579.92;1780711;79;21205;-75
2021/03/17 00:34:24;;;;;;;16.57;11.80;;;;;;;2.56;73.18;99569.66;1791031;79;21483;-75
2021/03/17 00:37:10;;;;;;;16.27;10.90;;;;;;;2.59;73.18;99572.36;1770994;79;21281;-74
2021/03/17 00:39:57;;;;;;;21.70;12.90;;;;;;;2.61;73.19;99574.78;1763069;79;21228;-74
2021/03/17 00:42:44;;;;;;;15.45;11.03;;;;;;;2.61;73.21;99576.09;1783955;79;21184;-75
2021/03/17 00:45:31;;;;;;;23.18;12.60;;;;;;;2.63;73.20;99568.74;1772681;80;21180;-74
2021/03/17 00:48:13;;;;;;;19.57;12.13;;;;;;;2.64;73.17;99562.46;1776296;79;21329;-75
2021/03/17 00:50:43;;;;;;;20.65;12.95;;;;;;;2.64;73.18;99561.14;1769111;79;21192;-75
2021/03/17 00:53:11;;;;;;;14.30;10.63;;;;;;;2.66;73.16;99566.97;1804153;77;21273;-74
2021/03/17 00:55:39;;;;;;;23.38;12.80;;;;;;;2.65;73.19;99560.10;1778430;78;21208;-73
2021/03/17 00:58:26;;;;;;;19.97;13.10;;;;;;;2.68;72.89;99559.13;1900987;74;23944;-70
2021/03/17 01:00:55;;;;;;;21.27;13.43;;;;;;;2.61;72.84;99559.77;1867616;75;21156;-69
2021/03/17 01:03:24;;;;;;;17.55;11.80;;;;;;;2.60;72.82;99556.84;1871800;75;22373;-69
2021/03/17 01:05:52;;;;;;;20.70;12.70;;;;;;;2.60;72.78;99547.62;1887508;75;21643;-70
2021/03/17 01:08:21;;;;;;;19.52;11.70;;;;;;;2.61;72.82;99557.64;1873029;75;21108;-69
2021/03/17 01:10:49;;;;;;;19.52;13.53;;;;;;;2.62;72.83;99556.61;1879370;75;21180;-70
2021/03/17 01:13:18;;;;;;;21.93;12.15;;;;;;;2.64;72.87;99554.55;1832025;77;21172;-70
2021/03/17 01:15:46;;;;;;;16.23;11.65;;;;;;;2.65;72.91;99553.52;1823901;77;21807;-70
2021/03/17 01:18:15;;;;;;;23.67;12.63;;;;;;;2.67;72.93;99560.17;1809161;78;21254;-70
2021/03/17 01:20:43;;;;;;;18.77;11.85;;;;;;;2.66;72.93;99556.42;1840415;77;21252;-69
2021/03/17 01:23:11;;;;;;;19.95;12.43;;;;;;;2.66;72.83;99554.59;1844888;77;21148;-70
2021/03/17 01:25:41;;;;;;;20.12;12.70;;;;;;;2.65;72.82;99550.87;1806696;77;21162;-71
2021/03/17 01:28:10;;;;;;;20.02;11.65;;;;;;;2.65;72.85;99549.56;1812801;77;22414;-71
2021/03/17 01:30:45;;;;;;;20.05;13.20;;;;;;;2.66;72.94;99551.16;1814071;77;22263;-71
2021/03/17 01:33:15;;;;;;;17.20;12.45;;;;;;;2.66;72.91;99552.47;1806252;77;21166;-71
2021/03/17 01:35:46;;;;;;;20.55;13.93;;;;;;;2.63;72.93;99547.66;1844692;77;22220;-70
2021/03/17 01:38:15;;;;;;;18.55;11.43;;;;;;;2.64;72.93;99553.23;1815624;78;22822;-70
2021/03/17 01:40:44;;;;;;;17.32;12.47;;;;;;;2.64;72.91;99550.59;1823102;78;21480;-70
2021/03/17 01:43:12;;;;;;;18.23;11.40;;;;;;;2.64;72.89;99542.17;1808353;78;21105;-70
2021/03/17 01:45:41;;;;;;;20.27;11.80;;;;;;;2.66;72.81;99541.92;1811836;78;21227;-70
2021/03/17 01:48:10;;;;;;;20.30;13.05;;;;;;;2.63;72.51;99536.59;1813604;77;21164;-71
2021/03/17 01:50:48;;;;;;;21.30;13.48;;;;;;;2.58;72.10;99538.61;1829709;77;26877;-72
2021/03/17 01:53:19;;;;;;;20.20;14.33;;;;;;;2.53;71.93;99537.19;1818604;78;21611;-70
2021/03/17 01:55:48;;;;;;;21.27;12.75;;;;;;;2.49;72.02;99534.70;1815121;77;21161;-71
2021/03/17 01:58:17;;;;;;;23.02;12.98;;;;;;;2.48;72.03;99535.74;1825295;77;21239;-70
2021/03/17 02:00:45;;;;;;;17.30;12.40;;;;;;;2.47;72.10;99536.78;1788115;78;21263;-71
2021/03/17 02:03:12;;;;;;;18.60;12.00;;;;;;;2.49;72.18;99539.97;1824612;78;21128;-70
2021/03/17 02:05:46;;;;;;;15.63;10.75;;;;;;;2.51;72.23;99538.44;1807391;77;21373;-71
2021/03/17 02:08:21;;;;;;;21.87;13.93;;;;;;;2.53;72.18;99536.36;1812814;77;22216;-71
2021/03/17 02:10:49;;;;;;;20.27;12.47;;;;;;;2.53;72.16;99542.46;1814890;77;21498;-70
2021/03/17 02:13:53;;;;;;;18.87;12.33;;;;;;;2.52;72.09;99535.56;1820047;77;21179;-71
2021/03/17 02:16:30;;;;;;;19.62;12.88;;;;;;;2.54;72.06;99531.40;1718627;81;21135;-72
2021/03/17 02:19:35;;;;;;;25.10;13.38;;;;;;;2.54;71.99;99528.77;1732293;81;22183;-73
2021/03/17 02:22:35;;;;;;;20.97;13.60;;;;;;;2.56;71.94;99530.11;1729711;81;21252;-72
2021/03/17 02:25:20;;;;;;;23.67;13.28;;;;;;;2.56;71.93;99527.48;1728391;81;21236;-73
2021/03/17 02:28:18;;;;;;;18.03;12.57;;;;;;;2.65;71.87;99523.98;1802897;79;22364;-70
2021/03/17 02:31:14;;;;;;;17.42;11.68;;;;;;;2.63;71.80;99521.30;1771000;78;21260;-69
2021/03/17 02:34:08;;;;;;;18.65;11.45;;;;;;;2.63;71.78;99522.61;1773452;80;21620;-70
2021/03/17 02:36:48;;;;;;;22.02;12.00;;;;;;;2.61;71.79;99517.58;1776768;79;21265;-70
2021/03/17 02:39:41;;;;;;;17.82;12.45;;;;;;;2.61;71.85;99522.85;1753213;80;21172;-70
2021/03/17 02:42:18;;;;;;;21.23;13.35;;;;;;;2.61;71.88;99516.27;1768688;80;21129;-70
2021/03/17 02:44:58;;;;;;;19.65;13.50;;;;;;;2.63;71.81;99523.93;1759605;80;21171;-71
2021/03/17 02:47:26;;;;;;;20.52;13.48;;;;;;;2.62;71.83;99521.02;1772192;80;21434;-70
2021/03/17 02:49:55;;;;;;;20.48;12.70;;;;;;;2.63;71.77;99521.30;1766482;80;21208;-70
2021/03/17 02:52:25;;;;;;;23.50;13.95;;;;;;;2.64;71.76;99520.28;1773450;79;21125;-70
2021/03/17 02:54:52;;;;;;;21.82;14.05;;;;;;;2.63;71.71;99522.09;1779011;80;21148;-70
2021/03/17 02:57:21;;;;;;;20.32;13.30;;;;;;;2.61;71.71;99522.85;1744158;81;21123;-69
2021/03/17 02:59:55;;;;;;;22.17;14.70;;;;;;;2.56;71.80;99516.94;1744402;80;21352;-69
2021/03/17 03:02:42;;;;;;;19.13;11.90;;;;;;;2.62;71.81;99519.70;1841961;76;22136;-70
2021/03/17 03:05:13;;;;;;;22.22;12.33;;;;;;;2.56;71.80;99525.36;1800928;78;21196;-69
2021/03/17 03:07:43;;;;;;;19.98;11.93;;;;;;;2.55;71.81;99525.88;1809018;78;21577;-69
2021/03/17 03:10:12;;;;;;;19.62;11.88;;;;;;;2.54;71.87;99522.97;1798777;79;21129;-68
2021/03/17 03:12:40;;;;;;;18.57;10.85;;;;;;;2.53;71.88;99517.42;1799522;78;21168;-70
2021/03/17 03:15:10;;;;;;;17.42;11.18;;;;;;;2.49;71.82;99517.57;1745473;79;21185;-71
2021/03/17 03:17:39;;;;;;;19.52;11.78;;;;;;;2.47;71.83;99513.06;1784731;78;21165;-69
2021/03/17 03:20:10;;;;;;;18.17;10.95;;;;;;;2.45;71.89;99511.16;1799532;78;21326;-70
2021/03/17 03:22:43;;;;;;;19.52;11.83;;;;;;;2.45;71.90;99513.80;1796793;79;21185;-70
2021/03/17 03:25:13;;;;;;;21.52;11.53;;;;;;;2.43;71.97;99515.05;1787341;79;21645;-72
2021/03/17 03:27:41;;;;;;;16.52;11.48;;;;;;;2.44;72.03;99520.63;1794586;78;21637;-70
2021/03/17 03:30:14;;;;;;;15.20;11.25;;;;;;;2.44;72.06;99522.74;1796060;79;21145;-71
2021/03/17 03:32:43;;;;;;;19.40;10.05;;;;;;;2.44;71.98;99516.67;1803017;78;21376;-69
2021/03/17 03:35:13;;;;;;;15.70;10.95;;;;;;;2.43;71.99;99522.95;1801120;78;21188;-70
2021/03/17 03:37:41;;;;;;;21.05;11.35;;;;;;;2.42;71.86;99520.05;1805352;79;21153;-71
2021/03/17 03:40:18;;;;;;;17.85;11.65;;;;;;;2.40;71.87;99522.09;1808096;78;21109;-70
2021/03/17 03:42:54;;;;;;;18.37;11.40;;;;;;;2.44;71.93;99514.83;1829283;75;22706;-69
2021/03/17 03:45:22;;;;;;;18.17;11.30;;;;;;;2.40;71.93;99522.89;1783570;78;21149;-69
2021/03/17 03:47:50;;;;;;;18.30;11.83;;;;;;;2.39;72.02;99523.93;1781091;78;22420;-70
2021/03/17 03:50:22;;;;;;;17.40;10.58;;;;;;;2.38;72.00;99524.97;1784326;80;21006;-69
2021/03/17 03:53:14;;;;;;;18.07;11.73;;;;;;;2.39;72.13;99520.50;1784042;78;21109;-70
2021/03/17 03:56:12;;;;;;;22.93;12.05;;;;;;;2.38;72.01;99526.28;1774684;78;21603;-70
2021/03/17 03:59:01;;;;;;;17.60;12.00;;;;;;;2.38;71.98;99522.85;1779780;78;21581;-68
2021/03/17 04:01:39;;;;;;;17.25;11.05;;;;;;;2.39;71.93;99511.27;1776178;78;21370;-69
2021/03/17 04:04:14;;;;;;;16.07;11.00;;;;;;;2.40;71.94;99512.87;1777044;78;21602;-70
2021/03/17 04:06:50;;;;;;;19.32;10.50;;;;;;;2.40;72.05;99516.30;1780064;79;21112;-70
2021/03/17 04:09:25;;;;;;;19.80;11.93;;;;;;;2.38;72.11;99513.11;1775719;78;21147;-70
2021/03/17 04:11:57;;;;;;;20.80;12.18;;;;;;;2.38;72.14;99515.75;1780401;78;21148;-70
2021/03/17 04:14:26;;;;;;;17.95;10.90;;;;;;;2.39;72.21;99504.16;1777733;79;21390;-70
2021/03/17 04:17:00;;;;;;;17.82;11.93;;;;;;;2.43;72.15;99512.41;1775381;79;22380;-70
2021/03/17 04:19:28;;;;;;;17.57;10.60;;;;;;;2.43;72.13;99509.26;1783414;78;21167;-70
2021/03/17 04:21:56;;;;;;;20.50;12.78;;;;;;;2.45;72.12;99501.14;1789053;78;21133;-71
2021/03/17 04:24:24;;;;;;;20.55;12.58;;;;;;;2.43;71.89;99505.83;1759492;79;21128;-71
2021/03/17 04:26:52;;;;;;;16.65;11.97;;;;;;;2.41;71.96;99504.75;1786890;79;21752;-72
2021/03/17 04:29:20;;;;;;;20.17;12.73;;;;;;;2.45;72.02;99506.41;1750710;79;21152;-71
2021/03/17 04:31:50;;;;;;;19.15;12.18;;;;;;;2.46;72.02;99506.16;1779852;78;21714;-70
2021/03/17 04:34:19;;;;;;;22.13;12.75;;;;;;;2.52;72.01;99505.25;1780635;78;21128;-70
2021/03/17 04:36:46;;;;;;;17.67;11.15;;;;;;;2.56;71.85;99506.39;1783195;79;21635;-72
2021/03/17 04:39:16;;;;;;;18.05;11.70;;;;;;;2.56;71.76;99505.07;1759263;79;21073;-69
2021/03/17 04:41:45;;;;;;;17.75;11.15;;;;;;;2.55;71.80;99504.80;1780925;78;21192;-70
2021/03/17 04:44:14;;;;;;;23.15;12.73;;;;;;;2.55;71.75;99500.84;1749986;80;21108;-69
2021/03/17 04:46:43;;;;;;;20.00;11.68;;;;;;;2.55;71.69;99500.05;1738769;80;21575;-70
2021/03/17 04:49:12;;;;;;;17.20;11.70;;;;;;;2.59;71.71;99499.86;1785961;79;21127;-70
2021/03/17 04:51:42;;;;;;;18.57;13.35;;;;;;;2.61;71.60;99495.69;1780753;78;21673;-70
2021/03/17 04:54:10;;;;;;;23.22;14.30;;;;;;;2.58;71.59;99497.75;1780419;78;21619;-70
2021/03/17 04:56:39;;;;;;;20.02;13.00;;;;;;;2.58;71.56;99491.16;1792504;79;21077;-70
2021/03/17 04:59:07;;;;;;;17.45;11.60;;;;;;;2.57;71.54;99497.98;1794940;78;21208;-69
2021/03/17 05:01:35;;;;;;;18.07;10.63;;;;;;;2.56;71.62;99490.57;1785019;78;21196;-70
2021/03/17 05:04:04;;;;;;;20.15;11.78;;;;;;;2.62;71.61;99492.02;1779540;78;21826;-70
2021/03/17 05:06:32;;;;;;;23.45;12.93;;;;;;;2.64;71.59;99486.80;1753579;80;21152;-70
2021/03/17 05:09:02;;;;;;;20.72;13.35;;;;;;;2.66;71.58;99491.31;1771473;79;21060;-70
2021/03/17 05:11:32;;;;;;;21.20;12.45;;;;;;;2.68;71.50;99494.53;1783583;78;21591;-70
2021/03/17 05:14:00;;;;;;;20.43;13.00;;;;;;;2.72;71.43;99493.55;1777831;78;21170;-69
2021/03/17 05:16:28;;;;;;;19.32;11.88;;;;;;;2.72;71.38;99498.83;1780685;78;21368;-69
2021/03/17 05:18:59;;;;;;;15.68;11.73;;;;;;;2.73;71.38;99498.61;1778654;78;21076;-69
2021/03/17 05:21:28;;;;;;;20.23;12.30;;;;;;;2.73;71.39;99500.42;1788518;79;21176;-69
2021/03/17 05:23:57;;;;;;;22.87;12.35;;;;;;;2.71;71.33;99497.23;1778730;78;21200;-70
2021/03/17 05:26:26;;;;;;;20.97;13.25;;;;;;;2.71;71.30;99497.23;1749762;80;21699;-70
2021/03/17 05:28:54;;;;;;;19.82;11.18;;;;;;;2.71;71.25;99495.91;1786170;78;21959;-69
2021/03/17 05:31:22;;;;;;;17.15;10.85;;;;;;;2.72;71.02;99500.94;1735565;80;21281;-71
2021/03/17 05:33:51;;;;;;;17.27;10.93;;;;;;;2.76;71.00;99497.32;1779847;79;21156;-69
2021/03/17 05:36:19;;;;;;;19.87;12.80;;;;;;;2.76;70.99;99501.27;1770475;79;21582;-69
2021/03/17 05:38:48;;;;;;;20.10;12.35;;;;;;;2.76;71.03;99500.78;1771704;78;21177;-70
2021/03/17 05:41:16;;;;;;;20.05;12.78;;;;;;;2.79;71.08;99500.81;1784127;78;21409;-70
2021/03/17 05:43:46;;;;;;;20.70;12.15;;;;;;;2.80;71.04;99493.21;1776211;78;21686;-70
2021/03/17 05:46:13;;;;;;;17.23;11.22;;;;;;;2.86;70.91;99495.41;1773001;78;21126;-71
2021/03/17 05:48:42;;;;;;;20.17;11.88;;;;;;;2.91;70.75;99498.97;1716267;82;21182;-70
2021/03/17 05:51:10;;;;;;;19.70;11.50;;;;;;;2.92;70.70;99499.24;1743175;81;21183;-71
2021/03/17 05:53:38;;;;;;;24.37;13.15;;;;;;;2.98;70.61;99498.84;1782262;79;21912;-71
2021/03/17 05:56:07;;;;;;;21.85;12.25;;;;;;;3.02;70.53;99498.65;1777004;78;21120;-72
2021/03/17 05:58:35;;;;;;;20.27;12.55;;;;;;;3.05;70.46;99495.55;1778955;78;21090;-71
2021/03/17 06:01:03;;;;;;;19.02;12.35;;;;;;;3.04;70.31;99501.34;1778611;78;21131;-71
2021/03/17 06:03:32;;;;;;;19.85;10.93;;;;;;;3.05;70.37;99497.66;1785408;80;21212;-70
2021/03/17 06:06:06;;;;;;;18.30;11.08;;;;;;;3.09;70.21;99499.31;1748774;80;22421;-70
2021/03/17 06:08:45;;;;;;;15.18;10.32;;;;;;;3.09;70.12;99500.63;1726304;78;21152;-70
2021/03/17 06:11:14;;;;;;;17.45;11.45;;;;;;;3.11;70.19;99502.53;1774268;79;21500;-70
2021/03/17 06:13:50;;;;;;;20.12;10.82;;;;;;;3.13;70.04;99501.00;1774947;79;21164;-71
2021/03/17 06:16:23;;;;;;;19.12;11.73;;;;;;;3.15;69.97;99501.55;1779319;78;21144;-71
2021/03/17 06:18:57;;;;;;;21.25;11.53;;;;;;;3.17;69.86;99498.17;1780231;79;21113;-71
2021/03/17 06:21:26;;;;;;;21.82;11.20;;;;;;;3.20;69.96;99498.50;1740058;80;21633;-72
2021/03/17 06:23:56;;;;;;;22.90;11.78;;;;;;;3.27;69.84;99497.84;1777202;78;21140;-72
2021/03/17 06:26:24;;;;;;;19.05;11.28;;;;;;;3.31;69.71;99492.89;1750897;80;21183;-73
2021/03/17 06:28:52;;;;;;;17.35;11.73;;;;;;;3.37;69.48;99489.84;1779129;78;21124;-71
2021/03/17 06:31:20;;;;;;;18.17;11.53;;;;;;;3.38;69.37;99494.07;1749919;80;21811;-69
2021/03/17 06:33:53;;;;;;;16.77;10.85;;;;;;;3.35;69.34;99503.25;1773560;78;21175;-70
2021/03/17 06:36:23;;;;;;;19.35;11.22;;;;;;;3.34;69.37;99499.02;1775141;78;21085;-69
2021/03/17 06:39:08;;;;;;;19.70;10.43;;;;;;;3.35;69.35;99505.89;1771841;78;21056;-70
2021/03/17 06:41:52;;;;;;;16.65;11.00;;;;;;;3.34;69.45;99504.83;1787330;78;21105;-69
2021/03/17 06:44:28;;;;;;;17.23;10.32;;;;;;;3.33;69.46;99494.79;1780945;78;21372;-70
2021/03/17 06:47:20;;;;;;;19.67;11.95;;;;;;;3.29;69.47;99507.66;1780408;78;21167;-70
2021/03/17 06:49:53;;;;;;;21.68;11.00;;;;;;;3.26;69.62;99504.16;1782069;78;21166;-71
2021/03/17 06:52:35;;;;;;;16.57;10.78;;;;;;;3.29;69.77;99509.47;1785987;80;21485;-71
2021/03/17 06:55:05;;;;;;;;;;;;;;;3.34;69.78;99504.30;1783467;78;21203;-71
2021/03/17 06:57:34;;;;;;;20.95;10.40;;;;;;;3.35;69.73;99505.89;1778655;78;21362;-71
2021/03/17 07:00:34;;;;;;;18.45;11.65;;;;;;;3.33;69.60;99509.30;1769595;78;21636;-73
2021/03/17 07:03:08;;;;;;;18.53;11.30;;;;;;;3.27;69.59;99504.44;1782172;80;21525;-71
2021/03/17 07:05:40;;;;;;;15.40;9.70;;;;;;;3.27;69.97;99507.60;1775500;78;21246;-71
2021/03/17 07:08:15;;;;;;;16.80;10.68;;;;;;;3.29;69.89;99514.25;1770370;78;21179;-71
2021/03/17 07:10:45;;;;;;;18.12;10.28;;;;;;;3.31;69.96;99508.73;1771748;78;21980;-71
2021/03/17 07:13:14;;;;;;;15.90;11.33;;;;;;;3.34;69.92;99504.83;1780464;78;21117;-71
2021/03/17 07:15:42;;;;;;;15.05;10.32;;;;;;;3.34;69.90;99505.63;1784012;78;21175;-71
2021/03/17 07:18:19;;;;;;;17.80;10.30;;;;;;;3.34;69.93;99506.94;1746107;80;21179;-72
2021/03/17 07:20:55;;;;;;;16.77;10.30;;;;;;;3.40;70.08;99507.32;1789082;78;21164;-71
2021/03/17 07:23:33;;;;;;;17.60;10.88;;;;;;;3.47;69.92;99504.55;1777372;78;21807;-71
2021/03/17 07:26:09;;;;;;;16.07;10.35;;;;;;;3.50;69.79;99500.91;1777342;79;21251;-72
2021/03/17 07:29:07;;;;;;;15.72;10.58;;;;;;;3.53;69.77;99494.36;1775066;78;21619;-71
2021/03/17 07:31:42;;;;;;;16.90;10.43;;;;;;;3.58;69.86;99501.56;1779144;78;21602;-70
2021/03/17 07:34:20;;;;;;;17.75;10.32;;;;;;;3.62;69.72;99499.55;1771309;78;21156;-71
2021/03/17 07:37:00;;;;;;;19.57;10.82;;;;;;;3.61;69.63;99501.09;1774852;78;21355;-71
2021/03/17 07:39:35;;;;;;;17.75;11.38;;;;;;;3.60;69.71;99490.26;1778368;79;21120;-71
2021/03/17 07:42:08;;;;;;;16.80;10.23;;;;;;;3.61;69.67;99494.48;1774743;79;21159;-72
2021/03/17 07:44:38;;;;;;;17.48;10.60;;;;;;;3.62;69.79;99491.63;1778216;79;21238;-70
2021/03/17 07:47:09;;;;;;;15.70;9.90;;;;;;;3.66;69.83;99494.59;1775006;78;21314;-71
2021/03/17 07:49:45;;;;;;;16.75;10.53;;;;;;;3.71;69.83;99496.78;1778260;78;21211;-71
2021/03/17 07:52:28;;;;;;;16.77;10.23;;;;;;;3.76;69.74;99493.45;1766016;80;21072;-71
2021/03/17 07:55:02;;;;;;;18.07;10.78;;;;;;;3.83;69.56;99490.13;1776969;78;21168;-72
2021/03/17 07:57:31;;;;;;;21.93;10.90;;;;;;;3.86;69.41;99492.82;1776544;79;21627;-74
2021/03/17 07:59:59;;;;;;;15.85;9.90;;;;;;;3.84;69.43;99494.36;1768134;78;21540;-74
2021/03/17 08:02:27;;;;;;;18.05;9.30;;;;;;;3.85;69.34;99493.84;1746490;80;22938;-71
2021/03/17 08:04:55;;;;;;;17.50;9.85;;;;;;;3.84;69.34;99489.61;1775580;80;21132;-72
2021/03/17 08:07:25;;;;;;;16.52;9.88;;;;;;;3.83;69.56;99488.02;1776095;78;21208;-73
2021/03/17 08:09:53;;;;;;;19.07;10.00;;;;;;;3.84;69.60;99494.36;1776622;78;21189;-73
2021/03/17 08:12:21;;;;;;;19.70;10.35;;;;;;;3.85;69.66;99493.84;1773587;78;21181;-74
2021/03/17 08:14:49;;;;;;;16.27;9.98;;;;;;;3.95;69.67;99494.83;1779097;78;21821;-72
2021/03/17 08:17:32;;;;;;;19.17;9.78;;;;;;;4.06;69.61;99494.47;1775902;78;21291;-71
2021/03/17 08:20:27;;;;;;;15.53;10.25;;;;;;;4.12;69.24;99487.43;1776486;78;21187;-71
2021/03/17 08:22:58;;;;;;;19.42;10.60;;;;;;;4.09;69.14;99489.23;1779322;80;21164;-71
2021/03/17 08:25:45;;;;;;;14.47;9.48;;;;;;;4.09;69.34;99482.10;1774231;79;21172;-69
2021/03/17 08:28:27;;;;;;;16.42;10.70;;;;;;;4.18;69.45;99483.83;1774230;78;22125;-71
2021/03/17 08:30:56;;;;;;;;;;;;;;;4.26;68.90;99479.45;1780635;78;21168;-71
2021/03/17 08:33:38;;;;;;;18.90;9.70;;;;;;;4.30;68.94;99473.95;1774716;78;20577;-71
2021/03/17 08:36:13;;;;;;;15.85;10.50;;;;;;;4.39;68.84;99481.75;1777909;78;21116;-71
2021/03/17 08:38:56;;;;;;;19.55;10.30;;;;;;;4.56;68.65;99487.02;1782675;78;21121;-71
2021/03/17 08:41:47;;;;;;;15.88;9.83;;;;;;;4.67;68.29;99480.02;1775163;78;21750;-71
2021/03/17 08:44:26;;;;;;;16.40;9.93;;;;;;;4.72;67.77;99477.45;1771526;78;21127;-71
2021/03/17 08:46:56;;;;;;;16.97;10.13;;;;;;;4.70;67.61;99480.84;1711152;81;21169;-73
2021/03/17 08:52:38;;;;;;;17.97;10.77;;;;;;;4.72;67.61;99476.13;1871512;76;22695;-74
2021/03/17 08:55:08;;;;;;;15.25;9.38;;;;;;;4.69;67.67;99480.58;1842765;76;21826;-71
2021/03/17 08:57:59;;;;;;;16.70;9.20;;;;;;;4.76;67.68;99473.26;1837009;76;21394;-71
2021/03/17 09:00:56;;;;;;;14.45;9.15;;;;;;;4.82;67.58;99478.10;1847171;77;21196;-72
2021/03/17 09:03:39;;;;;;;17.35;9.60;;;;;;;4.89;67.69;99473.42;1851605;76;21164;-71
2021/03/17 09:06:22;;;;;;;16.60;9.65;;;;;;;4.99;67.09;99470.10;1852722;77;21196;-72
2021/03/17 09:08:58;;;;;;;15.65;9.00;;;;;;;5.01;66.62;99472.79;1848848;75;21199;-71
2021/03/17 09:11:35;;;;;;;15.00;8.98;;;;;;;5.00;66.41;99473.02;1807303;77;21370;-70
2021/03/17 09:14:07;;;;;;;15.03;9.58;;;;;;;5.02;66.48;99470.94;1795594;78;21504;-70
2021/03/17 09:16:39;;;;;;;16.05;9.55;;;;;;;5.10;66.40;99478.43;1795346;78;21215;-72
2021/03/17 09:19:11;;;;;;;13.68;9.18;;;;;;;5.17;66.10;99476.42;1766434;79;21250;-71
2021/03/17 09:21:42;;;;;;;;;;;;;;;5.21;65.82;99477.52;1791661;79;21424;-71
2021/03/17 09:24:34;;;;;;;16.90;9.33;;;;;;;5.21;65.50;99482.81;1785556;78;21329;-71
2021/03/17 09:27:07;;;;;;;15.43;8.90;;;;;;;5.21;65.37;99475.39;1776356;78;21156;-70
2021/03/17 09:29:36;;;;;;;15.38;8.33;;;;;;;5.22;65.39;99483.08;1782459;78;21140;-72
2021/03/17 09:32:04;;;;;;;19.90;8.98;;;;;;;5.20;64.80;99483.87;1816096;77;21180;-73
2021/03/17 09:34:35;;;;;;;16.77;8.48;;;;;;;5.12;64.60;99486.41;1790213;78;21654;-74
2021/03/17 09:37:12;;;;;;;13.25;8.38;;;;;;;5.04;64.84;99481.56;1776887;78;22853;-70
2021/03/17 09:39:50;;;;;;;14.85;8.78;;;;;;;4.99;64.73;99488.63;1806630;78;21151;-72
2021/03/17 09:42:18;;;;;;;14.63;8.40;;;;;;;4.97;65.13;99494.68;1777105;78;21198;-70
2021/03/17 09:44:50;;;;;;;14.65;7.85;;;;;;;5.06;65.40;99497.18;1797140;78;21201;-71
2021/03/17 09:47:17;;;;;;;14.35;9.00;;;;;;;5.10;64.99;99486.37;1751738;78;22003;-70
2021/03/17 09:49:47;;;;;;;13.90;9.10;;;;;;;5.12;65.09;99491.70;1706380;78;21221;-71
2021/03/17 09:52:15;;;;;;;15.50;8.35;;;;;;;5.11;65.38;99491.95;1799007;78;21186;-71
2021/03/17 09:54:44;;;;;;;14.47;7.67;;;;;;;5.16;65.45;99486.18;1813638;78;21156;-69
2021/03/17 09:57:13;;;;;;;13.58;8.00;;;;;;;5.20;64.98;99493.13;1801451;78;21183;-70
2021/03/17 09:59:43;;;;;;;12.18;7.60;;;;;;;5.22;65.17;99486.25;1776908;79;21154;-71
2021/03/17 10:02:24;;;;;;;12.07;7.67;;;;;;;5.25;65.47;99491.05;1786906;78;21615;-70
2021/03/17 10:04:57;;;;;;;12.95;7.67;;;;;;;5.27;65.45;99485.80;1785360;80;21219;-70
2021/03/17 10:07:27;;;;;;;15.13;8.50;;;;;;;5.32;65.49;99485.83;1798592;78;21628;-70
2021/03/17 10:09:57;;;;;;;14.70;8.03;;;;;;;5.39;65.39;99489.08;1811986;78;21184;-70
2021/03/17 10:12:31;;;;;;;14.47;7.97;;;;;;;5.43;65.30;99489.91;1802248;78;21204;-70
2021/03/17 10:15:07;;;;;;;13.00;7.08;;;;;;;5.41;64.99;99482.23;1774119;80;21656;-70
2021/03/17 10:17:35;;;;;;;13.13;8.15;;;;;;;5.45;64.96;99474.58;1784331;78;21264;-70
2021/03/17 10:20:11;;;;;;;11.53;7.33;;;;;;;5.44;64.82;99472.99;1771927;80;21145;-73
2021/03/17 10:22:39;;;;;;;14.13;8.18;;;;;;;5.47;64.63;99474.61;1755546;78;21221;-69
2021/03/17 10:25:12;;;;;;;13.03;7.72;;;;;;;5.40;64.43;99485.41;1785117;78;21193;-69
2021/03/17 10:27:43;;;;;;;11.90;7.15;;;;;;;5.39;64.76;99484.31;1821586;78;21879;-71
2021/03/17 10:30:28;;;;;;;13.43;7.90;;;;;;;5.39;64.59;99483.78;1782958;78;21187;-70
2021/03/17 10:33:01;;;;;;;16.02;8.05;;;;;;;5.37;64.74;99481.13;1780186;78;21559;-70
2021/03/17 10:35:28;;;;;;;10.55;7.10;;;;;;;5.39;64.86;99481.14;1797421;78;21211;-71
2021/03/17 10:37:59;;;;;;;13.72;6.55;;;;;;;5.46;64.87;99479.61;1801235;78;21643;-70
2021/03/17 10:40:29;;;;;;;11.70;7.30;;;;;;;5.50;64.56;99482.59;1789542;78;21371;-70
2021/03/17 10:43:01;;;;;;;12.75;6.67;;;;;;;5.57;64.57;99477.89;1789479;78;21100;-70
2021/03/17 10:45:51;;;;;;;12.63;6.90;;;;;;;5.63;63.88;99476.89;1791463;78;21100;-72
2021/03/17 10:48:24;;;;;;;12.35;6.53;;;;;;;5.63;63.65;99480.34;1795697;78;21164;-69
2021/03/17 10:50:54;;;;;;;11.03;6.92;;;;;;;5.63;63.92;99481.66;1778714;79;21207;-70
2021/03/17 10:53:26;;;;;;;13.72;7.20;;;;;;;5.69;64.23;99472.42;1779800;80;21810;-74
2021/03/17 10:55:56;;;;;;;13.48;7.47;;;;;;;5.74;63.84;99477.78;1808016;78;21196;-72
2021/03/17 10:58:27;;;;;;;11.63;6.55;;;;;;;5.74;63.93;99479.11;1787625;78;21679;-71
2021/03/17 11:00:59;;;;;;;13.60;6.00;;;;;;;5.79;63.19;99475.16;1807809;78;21151;-71
2021/03/17 11:03:41;;;;;;;13.93;6.67;;;;;;;5.71;63.00;99471.12;1795185;79;22702;-72
2021/03/17 11:06:24;;;;;;;10.15;6.30;;;;;;;5.59;63.25;99469.16;1804264;78;21073;-70
2021/03/17 11:09:05;;;;;;;12.53;6.83;;;;;;;5.56;63.50;99478.92;1802534;79;22167;-71
2021/03/17 11:11:52;;;;;;;14.33;7.05;;;;;;;5.53;63.98;99474.95;1736125;81;21101;-70
2021/03/17 11:14:35;;;;;;;9.68;6.33;;;;;;;5.55;64.26;99479.45;1739977;81;21202;-70
2021/03/17 11:17:08;;;;;;;10.30;6.25;;;;;;;5.52;64.12;99477.30;1806874;78;21046;-69
2021/03/17 11:19:38;;;;;;;14.83;6.85;;;;;;;5.44;64.44;99480.94;1788914;78;21218;-69
2021/03/17 11:22:06;;;;;;;13.25;6.37;;;;;;;5.43;64.67;99480.14;1788943;79;22232;-71
2021/03/17 11:24:34;;;;;;;12.85;6.00;;;;;;;5.45;64.66;99474.58;1775293;78;21080;-71
2021/03/17 11:27:02;;;;;;;11.88;6.08;;;;;;;5.46;64.75;99481.47;1735314;80;21129;-70
2021/03/17 11:29:31;;;;;;;10.58;6.00;;;;;;;5.48;64.75;99479.38;1733711;82;21142;-70
2021/03/17 11:32:08;;;;;;;13.22;6.55;;;;;;;5.48;64.44;99489.97;1800407;78;21176;-68
2021/03/17 11:34:38;;;;;;;11.08;5.80;;;;;;;5.39;64.48;99481.14;1789837;79;21360;-70
2021/03/17 11:37:06;;;;;;;14.10;6.47;;;;;;;5.32;64.77;99483.72;1801519;78;21128;-69
2021/03/17 11:39:35;;;;;;;10.80;6.05;;;;;;;5.29;65.00;99482.88;1792492;79;21125;-69
2021/03/17 11:42:04;;;;;;;12.35;6.47;;;;;;;5.30;65.38;99483.18;1761912;80;21186;-69
2021/03/17 11:44:36;;;;;;;10.53;6.90;;;;;;;5.31;65.09;99481.59;1752021;80;21415;-69
2021/03/17 11:47:04;;;;;;;12.60;6.80;;;;;;;5.31;65.17;99480.80;1733821;81;21372;-69
2021/03/17 11:49:32;;;;;;;13.88;6.83;;;;;;;5.31;65.20;99485.56;1741284;80;21600;-70
2021/03/17 11:52:03;;;;;;;11.73;6.70;;;;;;;5.27;65.10;99487.64;1751725;80;21183;-70
2021/03/17 11:54:32;;;;;;;12.98;6.85;;;;;;;5.18;65.14;99482.77;1751232;80;21208;-71
2021/03/17 11:57:04;;;;;;;12.23;6.47;;;;;;;5.10;65.47;99485.05;1732649;80;21679;-71
2021/03/17 11:59:32;;;;;;;13.28;5.92;;;;;;;5.02;65.80;99477.55;1737677;80;22313;-70
2021/03/17 12:02:02;;;;;;;13.30;5.85;;;;;;;5.01;66.11;99483.37;1773161;78;21336;-70
2021/03/17 12:04:30;;;;;;;14.05;6.45;;;;;;;5.01;66.05;99482.58;1792414;79;21216;-71